Time;durP1;ratioP1;P1;durP2;ratioP2;P2;SDS_P1;SDS_P2;PMS_P1;PMS_P2;Temp;Humidity;BMP_temperature;BMP_pressure;BME280_temperature;BME280_humidity;BME280_pressure;Samples;Min_cycle;Max_cycle;Signal;HPM_P1;HPM_P2
2023/02/10 00:00:30;;;;;;;36.58;31.98;;;;;;;;;;6176608;23;20029;-83
2023/02/10 00:03:02;;;;;;;43.88;30.35;;;;;;;;;;6147765;23;20479;-84
2023/02/10 00:05:29;;;;;;;39.47;29.58;;;;;;;;;;6177194;23;20028;-84
2023/02/10 00:07:56;;;;;;;45.00;30.13;;;;;;;;;;6123815;23;20025;-84
2023/02/10 00:10:25;;;;;;;42.55;27.02;;;;;;;;;;6177656;23;20496;-84
2023/02/10 00:12:52;;;;;;;33.85;28.98;;;;;;;;;;6147590;23;20017;-84
2023/02/10 00:15:21;;;;;;;40.42;30.13;;;;;;;;;;6150993;23;20040;-84
2023/02/10 00:17:49;;;;;;;37.45;31.40;;;;;;;;;;6175003;23;20017;-84
2023/02/10 00:20:16;;;;;;;36.63;26.50;;;;;;;;;;6123806;23;20348;-84
2023/02/10 00:22:45;;;;;;;32.47;27.27;;;;;;;;;;6160826;23;20020;-84
2023/02/10 00:25:12;;;;;;;32.53;26.58;;;;;;;;;;6151505;23;20024;-85
2023/02/10 00:27:41;;;;;;;35.53;24.27;;;;;;;;;;6175999;23;20021;-84
2023/02/10 00:30:10;;;;;;;38.17;26.83;;;;;;;;;;6151377;23;20021;-84
2023/02/10 00:32:42;;;;;;;38.95;26.80;;;;;;;;;;6124258;23;20088;-84
2023/02/10 00:35:09;;;;;;;34.55;27.13;;;;;;;;;;6124562;23;20374;-84
2023/02/10 00:37:36;;;;;;;28.30;24.30;;;;;;;;;;6125693;23;20020;-84
2023/02/10 00:40:04;;;;;;;35.33;24.75;;;;;;;;;;6149788;23;20040;-84
2023/02/10 00:42:31;;;;;;;33.00;22.23;;;;;;;;;;6124943;23;20017;-84
2023/02/10 00:48:00;;;;;;;31.02;23.10;;;;;;;;;;6098718;23;20014;-81
2023/02/10 00:50:28;;;;;;;32.92;25.15;;;;;;;;;;6062996;23;20018;-81
2023/02/10 00:52:55;;;;;;;33.75;25.38;;;;;;;;;;6063236;23;20026;-81
2023/02/10 00:55:24;;;;;;;32.50;24.58;;;;;;;;;;6095390;23;20014;-82
2023/02/10 00:57:54;;;;;;;33.03;20.73;;;;;;;;;;6092043;23;20048;-82
2023/02/10 01:00:23;;;;;;;28.35;23.50;;;;;;;;;;6104171;23;20022;-82
2023/02/10 01:02:51;;;;;;;32.63;25.02;;;;;;;;;;6090478;23;20014;-82
2023/02/10 01:05:19;;;;;;;28.88;22.98;;;;;;;;;;6118840;23;20029;-82
2023/02/10 01:07:46;;;;;;;35.80;20.50;;;;;;;;;;6092051;23;20018;-81
2023/02/10 01:10:14;;;;;;;28.90;23.58;;;;;;;;;;6102878;23;20021;-82
2023/02/10 01:12:41;;;;;;;31.77;21.02;;;;;;;;;;6091975;23;20018;-81
2023/02/10 01:15:10;;;;;;;27.20;21.00;;;;;;;;;;6103809;23;20018;-81
2023/02/10 01:17:38;;;;;;;28.58;22.38;;;;;;;;;;6090829;23;20029;-81
2023/02/10 01:20:08;;;;;;;26.80;22.15;;;;;;;;;;6092562;23;20044;-82
2023/02/10 01:22:37;;;;;;;32.08;23.13;;;;;;;;;;6092508;23;20021;-81
2023/02/10 01:25:09;;;;;;;31.70;23.35;;;;;;;;;;6070716;23;20306;-81
2023/02/10 01:27:36;;;;;;;34.42;24.02;;;;;;;;;;6125998;23;20014;-82
2023/02/10 01:30:06;;;;;;;28.30;21.05;;;;;;;;;;6094374;23;20235;-81
2023/02/10 01:32:33;;;;;;;26.20;22.63;;;;;;;;;;6123493;23;20358;-81
2023/02/10 01:35:04;;;;;;;35.10;23.30;;;;;;;;;;6129491;23;20014;-82
2023/02/10 01:37:32;;;;;;;29.27;23.25;;;;;;;;;;6101964;23;20026;-82
2023/02/10 01:40:00;;;;;;;27.92;23.20;;;;;;;;;;6125212;23;20025;-82
2023/02/10 01:42:27;;;;;;;28.17;21.50;;;;;;;;;;6073428;23;20021;-81
2023/02/10 01:45:23;;;;;;;25.25;20.92;;;;;;;;;;6123369;23;20020;-81
2023/02/10 01:47:53;;;;;;;32.80;22.35;;;;;;;;;;6106941;23;20018;-81
2023/02/10 01:50:22;;;;;;;31.67;21.27;;;;;;;;;;6131196;23;20342;-81
2023/02/10 01:52:50;;;;;;;28.30;21.42;;;;;;;;;;6096880;23;20350;-81
2023/02/10 01:55:21;;;;;;;30.20;24.00;;;;;;;;;;6098726;23;20024;-81
2023/02/10 01:57:53;;;;;;;34.13;23.90;;;;;;;;;;6132645;23;20657;-81
2023/02/10 02:00:22;;;;;;;30.70;23.83;;;;;;;;;;6099408;23;20014;-81
2023/02/10 02:02:52;;;;;;;31.30;21.77;;;;;;;;;;6130732;23;20010;-81
2023/02/10 02:05:29;;;;;;;26.15;20.92;;;;;;;;;;6098966;23;20013;-81
2023/02/10 02:08:00;;;;;;;32.03;23.25;;;;;;;;;;6130172;23;20017;-81
2023/02/10 02:10:39;;;;;;;36.42;25.10;;;;;;;;;;6097755;23;20041;-81
2023/02/10 02:13:12;;;;;;;27.73;23.08;;;;;;;;;;6073551;23;20022;-81
2023/02/10 02:15:47;;;;;;;29.23;19.92;;;;;;;;;;6098436;23;20025;-81
2023/02/10 02:18:19;;;;;;;27.02;19.30;;;;;;;;;;6097153;23;20018;-81
2023/02/10 02:21:06;;;;;;;25.52;21.83;;;;;;;;;;6108471;23;20346;-81
2023/02/10 02:24:08;;;;;;;30.52;23.88;;;;;;;;;;6107608;23;20450;-81
2023/02/10 02:26:51;;;;;;;26.60;20.90;;;;;;;;;;6095329;23;20021;-81
2023/02/10 02:29:35;;;;;;;32.03;22.58;;;;;;;;;;6073381;23;20025;-81
2023/02/10 02:32:09;;;;;;;28.20;20.95;;;;;;;;;;6097652;23;20018;-81
2023/02/10 02:34:39;;;;;;;34.78;24.38;;;;;;;;;;6108981;23;20014;-81
2023/02/10 02:37:11;;;;;;;30.02;23.08;;;;;;;;;;6095593;23;20025;-81
2023/02/10 02:39:42;;;;;;;37.38;21.77;;;;;;;;;;6122671;23;20024;-81
2023/02/10 02:42:18;;;;;;;28.08;20.52;;;;;;;;;;6096736;23;20480;-81
2023/02/10 02:44:47;;;;;;;33.25;22.25;;;;;;;;;;6097038;23;20017;-81
2023/02/10 02:47:20;;;;;;;28.67;22.98;;;;;;;;;;6072593;23;20028;-81
2023/02/10 02:49:56;;;;;;;27.23;21.67;;;;;;;;;;6073340;23;20057;-81
2023/02/10 02:52:28;;;;;;;31.85;21.00;;;;;;;;;;6096362;23;20358;-81
2023/02/10 02:54:59;;;;;;;30.35;21.35;;;;;;;;;;6074105;23;20018;-81
2023/02/10 02:57:33;;;;;;;30.50;23.38;;;;;;;;;;6106671;23;20021;-81
2023/02/10 03:00:06;;;;;;;35.95;25.00;;;;;;;;;;6133351;23;20025;-81
2023/02/10 03:02:41;;;;;;;40.88;24.13;;;;;;;;;;6122659;23;20021;-81
2023/02/10 03:05:08;;;;;;;33.78;22.13;;;;;;;;;;6074028;23;20018;-81
2023/02/10 03:07:36;;;;;;;31.90;21.08;;;;;;;;;;6095724;23;20025;-81
2023/02/10 03:10:04;;;;;;;33.70;22.65;;;;;;;;;;6123653;23;20023;-81
2023/02/10 03:12:31;;;;;;;30.67;20.70;;;;;;;;;;6123326;23;20350;-81
2023/02/10 03:14:58;;;;;;;32.10;21.80;;;;;;;;;;6123854;23;20010;-81
2023/02/10 03:17:25;;;;;;;36.00;22.58;;;;;;;;;;6122196;23;20212;-81
2023/02/10 03:19:56;;;;;;;35.47;24.67;;;;;;;;;;6123693;23;20022;-81
2023/02/10 03:22:26;;;;;;;29.90;19.90;;;;;;;;;;6122305;23;20028;-81
2023/02/10 03:24:53;;;;;;;33.65;23.48;;;;;;;;;;6131167;23;20439;-81
2023/02/10 03:27:20;;;;;;;32.10;23.75;;;;;;;;;;6096295;23;20014;-81
2023/02/10 03:29:52;;;;;;;34.72;24.40;;;;;;;;;;6094515;23;20029;-81
2023/02/10 03:32:19;;;;;;;32.45;21.80;;;;;;;;;;6117394;23;20436;-81
2023/02/10 03:34:46;;;;;;;36.47;25.63;;;;;;;;;;6101336;23;20010;-81
2023/02/10 03:37:17;;;;;;;33.40;20.48;;;;;;;;;;6093080;23;20029;-81
2023/02/10 03:39:45;;;;;;;28.90;21.17;;;;;;;;;;6066833;23;20028;-81
2023/02/10 03:42:12;;;;;;;37.45;24.58;;;;;;;;;;6090234;23;20022;-80
2023/02/10 03:44:39;;;;;;;40.15;24.63;;;;;;;;;;6067052;23;20014;-81
2023/02/10 03:47:09;;;;;;;33.53;26.40;;;;;;;;;;6091360;23;20025;-81
2023/02/10 03:49:38;;;;;;;31.80;23.83;;;;;;;;;;6066289;23;20396;-81
2023/02/10 03:52:06;;;;;;;38.40;23.55;;;;;;;;;;6116776;23;20020;-81
2023/02/10 03:54:34;;;;;;;29.25;21.27;;;;;;;;;;6091110;23;20014;-81
2023/02/10 03:57:05;;;;;;;32.28;23.08;;;;;;;;;;6067865;23;20038;-81
2023/02/10 03:59:32;;;;;;;29.20;22.20;;;;;;;;;;6067308;23;20022;-81
2023/02/10 04:02:00;;;;;;;33.60;25.52;;;;;;;;;;6090068;23;20022;-81
2023/02/10 04:04:27;;;;;;;34.83;21.88;;;;;;;;;;6090969;23;20018;-81
2023/02/10 04:06:54;;;;;;;41.63;28.20;;;;;;;;;;6118008;23;20462;-81
2023/02/10 04:09:21;;;;;;;31.98;22.40;;;;;;;;;;6117700;23;20018;-81
2023/02/10 04:11:50;;;;;;;43.20;27.58;;;;;;;;;;6090262;23;20026;-81
2023/02/10 04:14:19;;;;;;;33.70;24.05;;;;;;;;;;6126369;23;20029;-81
2023/02/10 04:16:49;;;;;;;34.75;24.45;;;;;;;;;;6068021;23;20045;-81
2023/02/10 04:19:16;;;;;;;29.55;26.35;;;;;;;;;;6091322;23;20033;-81
2023/02/10 04:21:43;;;;;;;32.90;22.90;;;;;;;;;;6119182;23;20014;-81
2023/02/10 04:24:11;;;;;;;37.17;24.75;;;;;;;;;;6127313;23;20014;-80
2023/02/10 04:26:40;;;;;;;34.92;22.55;;;;;;;;;;6119750;23;20029;-80
2023/02/10 04:29:11;;;;;;;35.38;24.52;;;;;;;;;;6093059;23;20053;-80
2023/02/10 04:31:38;;;;;;;37.78;26.00;;;;;;;;;;6118962;23;20025;-80
2023/02/10 04:34:05;;;;;;;48.58;31.85;;;;;;;;;;6070084;23;20021;-80
2023/02/10 04:36:33;;;;;;;31.83;24.75;;;;;;;;;;6115811;23;20025;-80
2023/02/10 04:39:02;;;;;;;41.53;26.98;;;;;;;;;;6090496;23;20025;-80
2023/02/10 04:41:32;;;;;;;30.83;23.27;;;;;;;;;;6129172;23;20014;-80
2023/02/10 04:43:59;;;;;;;35.72;23.25;;;;;;;;;;6117708;23;20021;-80
2023/02/10 04:46:30;;;;;;;36.40;26.73;;;;;;;;;;6119829;23;20473;-80
2023/02/10 04:48:57;;;;;;;39.08;26.67;;;;;;;;;;6116729;23;20022;-80
2023/02/10 04:51:24;;;;;;;33.97;23.05;;;;;;;;;;6093843;23;20018;-80
2023/02/10 04:53:54;;;;;;;35.15;27.77;;;;;;;;;;6090629;23;20033;-80
2023/02/10 04:56:21;;;;;;;35.47;24.27;;;;;;;;;;6092875;23;20037;-80
2023/02/10 04:58:48;;;;;;;32.30;23.73;;;;;;;;;;6118180;23;20278;-80
2023/02/10 05:01:15;;;;;;;43.33;29.33;;;;;;;;;;6093422;23;20024;-80
2023/02/10 05:03:44;;;;;;;35.88;23.80;;;;;;;;;;6068426;23;20018;-80
2023/02/10 05:06:13;;;;;;;42.30;25.58;;;;;;;;;;6120559;23;20018;-80
2023/02/10 05:08:41;;;;;;;32.85;23.20;;;;;;;;;;6090451;23;20029;-80
2023/02/10 05:11:15;;;;;;;38.87;25.00;;;;;;;;;;6093140;23;20033;-80
2023/02/10 05:13:42;;;;;;;34.70;24.73;;;;;;;;;;6067644;23;20022;-80
2023/02/10 05:16:10;;;;;;;38.58;23.98;;;;;;;;;;6066098;23;20421;-80
2023/02/10 05:18:39;;;;;;;40.08;26.20;;;;;;;;;;6101130;23;20018;-80
2023/02/10 05:21:11;;;;;;;35.45;25.58;;;;;;;;;;6103390;23;20036;-80
2023/02/10 05:23:41;;;;;;;34.08;22.80;;;;;;;;;;6092874;23;20033;-80
2023/02/10 05:26:08;;;;;;;32.53;24.98;;;;;;;;;;6129174;23;20021;-79
2023/02/10 05:28:36;;;;;;;35.70;25.75;;;;;;;;;;6106708;23;20033;-80
2023/02/10 05:31:06;;;;;;;36.85;25.92;;;;;;;;;;6096597;23;20028;-81
2023/02/10 05:33:35;;;;;;;28.85;23.85;;;;;;;;;;6075048;23;20025;-80
2023/02/10 05:36:03;;;;;;;31.02;23.17;;;;;;;;;;6120846;23;20018;-80
2023/02/10 05:38:32;;;;;;;32.83;24.10;;;;;;;;;;6093020;23;20446;-80
2023/02/10 05:40:59;;;;;;;35.38;28.13;;;;;;;;;;6120323;23;20361;-81
2023/02/10 05:43:26;;;;;;;39.03;28.98;;;;;;;;;;6092621;23;20024;-80
2023/02/10 05:45:53;;;;;;;36.50;24.17;;;;;;;;;;6066615;23;20462;-81
2023/02/10 05:48:21;;;;;;;42.38;27.50;;;;;;;;;;6086697;23;20018;-80
2023/02/10 05:50:51;;;;;;;37.78;27.00;;;;;;;;;;6099685;23;20432;-81
2023/02/10 05:53:19;;;;;;;31.05;23.98;;;;;;;;;;6116558;23;20018;-80
2023/02/10 05:55:52;;;;;;;44.55;26.35;;;;;;;;;;6089582;23;20029;-81
2023/02/10 05:58:21;;;;;;;36.53;24.70;;;;;;;;;;6123853;23;20028;-80
2023/02/10 06:00:48;;;;;;;35.70;25.63;;;;;;;;;;6114877;23;20033;-80
2023/02/10 06:03:16;;;;;;;34.80;25.48;;;;;;;;;;6091708;23;20452;-80
2023/02/10 06:05:45;;;;;;;42.88;26.60;;;;;;;;;;6121967;23;20025;-80
2023/02/10 06:08:13;;;;;;;33.05;23.52;;;;;;;;;;6115695;23;20022;-80
2023/02/10 06:10:40;;;;;;;40.58;27.73;;;;;;;;;;6088718;23;20018;-80
2023/02/10 06:13:11;;;;;;;33.33;22.40;;;;;;;;;;6090447;23;20041;-81
2023/02/10 06:15:40;;;;;;;38.20;26.05;;;;;;;;;;6122309;23;20268;-80
2023/02/10 06:18:08;;;;;;;36.00;23.70;;;;;;;;;;6116170;23;20401;-80
2023/02/10 06:20:35;;;;;;;33.83;21.77;;;;;;;;;;6090270;23;20399;-80
2023/02/10 06:23:02;;;;;;;34.42;23.70;;;;;;;;;;6065912;23;20026;-80
2023/02/10 06:25:29;;;;;;;36.50;23.27;;;;;;;;;;6090098;23;20014;-81
2023/02/10 06:27:59;;;;;;;34.75;25.90;;;;;;;;;;6097872;23;20025;-80
2023/02/10 06:30:30;;;;;;;36.70;26.38;;;;;;;;;;6125135;23;20036;-80
2023/02/10 06:32:57;;;;;;;37.10;26.77;;;;;;;;;;6097511;23;20040;-81
2023/02/10 06:35:24;;;;;;;43.88;30.35;;;;;;;;;;6099761;23;20014;-80
2023/02/10 06:37:54;;;;;;;39.40;26.55;;;;;;;;;;6123660;23;20024;-80
2023/02/10 06:40:21;;;;;;;35.60;26.80;;;;;;;;;;6098320;23;20037;-80
2023/02/10 06:42:48;;;;;;;42.67;26.45;;;;;;;;;;6073765;23;20018;-80
2023/02/10 06:48:17;;;;;;;34.47;25.35;;;;;;;;;;6097526;23;20017;-84
2023/02/10 06:50:44;;;;;;;41.53;27.45;;;;;;;;;;6126215;23;20018;-83
2023/02/10 06:53:12;;;;;;;38.67;27.35;;;;;;;;;;6162621;23;20017;-83
2023/02/10 06:55:39;;;;;;;36.58;27.75;;;;;;;;;;6127245;23;20484;-83
2023/02/10 06:58:06;;;;;;;35.83;24.65;;;;;;;;;;6153810;23;20021;-84
2023/02/10 07:00:33;;;;;;;32.53;24.05;;;;;;;;;;6127375;23;20017;-84
2023/02/10 07:03:00;;;;;;;43.95;29.92;;;;;;;;;;6153040;23;20464;-84
2023/02/10 07:05:31;;;;;;;37.85;28.60;;;;;;;;;;6126173;23;20013;-83
2023/02/10 07:08:00;;;;;;;37.13;25.65;;;;;;;;;;6152271;23;20036;-83
2023/02/10 07:10:27;;;;;;;38.80;25.58;;;;;;;;;;6102329;23;20017;-84
2023/02/10 07:12:56;;;;;;;37.70;26.13;;;;;;;;;;6152616;23;20017;-83
2023/02/10 07:15:24;;;;;;;32.40;22.52;;;;;;;;;;6103680;23;20017;-81
2023/02/10 07:17:52;;;;;;;39.13;29.23;;;;;;;;;;6132467;23;20024;-82
2023/02/10 07:20:19;;;;;;;42.58;26.67;;;;;;;;;;6161278;23;20013;-82
2023/02/10 07:22:51;;;;;;;37.50;24.38;;;;;;;;;;6164014;23;20014;-84
2023/02/10 07:25:18;;;;;;;43.80;27.52;;;;;;;;;;6151965;23;20025;-84
2023/02/10 07:27:46;;;;;;;40.85;27.50;;;;;;;;;;6153256;23;20028;-84
2023/02/10 07:30:13;;;;;;;37.83;27.77;;;;;;;;;;6126436;23;20037;-84
2023/02/10 07:32:44;;;;;;;34.20;25.52;;;;;;;;;;6151170;23;20014;-84
2023/02/10 07:35:11;;;;;;;43.33;27.15;;;;;;;;;;6136400;23;20021;-83
2023/02/10 07:37:39;;;;;;;37.85;26.13;;;;;;;;;;6127008;23;20017;-84
2023/02/10 07:40:12;;;;;;;38.97;26.13;;;;;;;;;;6137698;23;20039;-84
2023/02/10 07:42:41;;;;;;;42.28;27.42;;;;;;;;;;6160957;23;20029;-82
2023/02/10 07:45:20;;;;;;;39.53;28.45;;;;;;;;;;6133741;23;20025;-83
2023/02/10 07:47:47;;;;;;;43.90;29.63;;;;;;;;;;6151098;23;20017;-83
2023/02/10 07:50:14;;;;;;;40.40;28.25;;;;;;;;;;6127243;23;20021;-84
2023/02/10 07:52:44;;;;;;;39.58;24.77;;;;;;;;;;6126000;23;20044;-85
2023/02/10 07:55:15;;;;;;;51.17;32.08;;;;;;;;;;6153278;23;20144;-84
2023/02/10 07:57:42;;;;;;;41.45;26.65;;;;;;;;;;6126576;23;20013;-84
2023/02/10 08:00:13;;;;;;;59.53;33.03;;;;;;;;;;6153647;23;20017;-85
2023/02/10 08:02:40;;;;;;;43.50;34.20;;;;;;;;;;6123887;23;20022;-84
2023/02/10 08:05:07;;;;;;;41.35;29.98;;;;;;;;;;6152980;23;20020;-85
2023/02/10 08:07:35;;;;;;;52.42;35.38;;;;;;;;;;6126989;23;20017;-84
2023/02/10 08:10:02;;;;;;;61.10;38.47;;;;;;;;;;6153913;23;20024;-85
2023/02/10 08:12:32;;;;;;;45.83;37.22;;;;;;;;;;6101604;23;20029;-83
2023/02/10 08:15:01;;;;;;;44.80;32.85;;;;;;;;;;6127559;23;20028;-83
2023/02/10 08:17:31;;;;;;;34.05;29.25;;;;;;;;;;6125620;23;20036;-84
2023/02/10 08:19:58;;;;;;;42.53;30.92;;;;;;;;;;6127540;23;20180;-84
2023/02/10 08:22:26;;;;;;;59.13;41.38;;;;;;;;;;6152808;23;20018;-83
2023/02/10 08:24:53;;;;;;;51.20;37.72;;;;;;;;;;6152877;23;20020;-84
2023/02/10 08:27:20;;;;;;;46.20;32.15;;;;;;;;;;6126730;23;20016;-82
2023/02/10 08:29:51;;;;;;;47.10;32.53;;;;;;;;;;6128262;23;20017;-82
2023/02/10 08:32:21;;;;;;;48.40;32.65;;;;;;;;;;6137312;23;20017;-82
2023/02/10 08:34:51;;;;;;;52.13;37.03;;;;;;;;;;6125330;23;20025;-84
2023/02/10 08:37:18;;;;;;;40.85;33.20;;;;;;;;;;6152390;23;20345;-84
2023/02/10 08:39:45;;;;;;;53.28;29.25;;;;;;;;;;6102481;23;20017;-84
2023/02/10 08:42:13;;;;;;;39.45;26.58;;;;;;;;;;6125477;23;20045;-83
2023/02/10 08:44:42;;;;;;;32.67;24.55;;;;;;;;;;6161074;23;20484;-83
2023/02/10 08:47:14;;;;;;;37.42;27.23;;;;;;;;;;6101932;23;20369;-83
2023/02/10 08:49:42;;;;;;;34.45;22.90;;;;;;;;;;6137553;23;20445;-83
2023/02/10 08:52:09;;;;;;;38.70;29.80;;;;;;;;;;6125797;23;20021;-83
2023/02/10 08:54:38;;;;;;;38.85;29.77;;;;;;;;;;6162401;23;20023;-83
2023/02/10 08:57:05;;;;;;;40.03;29.88;;;;;;;;;;6152823;23;20350;-83
2023/02/10 08:59:33;;;;;;;39.25;29.17;;;;;;;;;;6127067;23;20017;-83
2023/02/10 09:02:02;;;;;;;34.25;27.77;;;;;;;;;;6101250;23;20017;-82
2023/02/10 09:04:33;;;;;;;44.10;30.60;;;;;;;;;;6100035;23;20041;-82
2023/02/10 09:07:01;;;;;;;38.33;29.42;;;;;;;;;;6150029;23;20013;-82
2023/02/10 09:09:30;;;;;;;45.97;31.92;;;;;;;;;;6155568;23;20028;-83
2023/02/10 09:12:00;;;;;;;43.40;29.35;;;;;;;;;;6128436;23;20021;-83
2023/02/10 09:14:30;;;;;;;45.17;31.40;;;;;;;;;;6129705;23;20020;-83
2023/02/10 09:16:57;;;;;;;41.78;30.33;;;;;;;;;;6129038;23;20014;-82
2023/02/10 09:19:25;;;;;;;50.10;32.58;;;;;;;;;;6127843;23;20025;-82
2023/02/10 09:21:55;;;;;;;38.70;28.27;;;;;;;;;;6129036;23;20013;-82
2023/02/10 09:24:23;;;;;;;42.17;27.98;;;;;;;;;;6126648;23;20022;-82
2023/02/10 09:26:55;;;;;;;37.90;29.63;;;;;;;;;;6132091;23;20010;-82
2023/02/10 09:29:22;;;;;;;39.92;31.13;;;;;;;;;;6153617;23;20014;-82
2023/02/10 09:31:51;;;;;;;37.38;27.65;;;;;;;;;;6104700;23;20029;-82
2023/02/10 09:34:19;;;;;;;42.47;32.67;;;;;;;;;;6127884;23;20013;-82
2023/02/10 09:36:46;;;;;;;39.63;29.85;;;;;;;;;;6103771;23;20014;-83
2023/02/10 09:39:17;;;;;;;41.50;29.23;;;;;;;;;;6151937;23;20022;-82
2023/02/10 09:41:54;;;;;;;41.22;29.83;;;;;;;;;;6154404;23;20021;-82
2023/02/10 09:44:23;;;;;;;39.05;28.92;;;;;;;;;;6101933;23;20024;-83
2023/02/10 09:47:07;;;;;;;39.38;27.20;;;;;;;;;;6156991;23;20029;-83
2023/02/10 09:49:49;;;;;;;44.53;32.42;;;;;;;;;;6163263;23;20017;-83
2023/02/10 09:52:20;;;;;;;37.22;28.88;;;;;;;;;;6128240;23;20369;-83
2023/02/10 09:54:49;;;;;;;46.90;33.25;;;;;;;;;;6164237;23;20458;-82
2023/02/10 09:57:21;;;;;;;41.00;30.90;;;;;;;;;;6155249;23;20017;-82
2023/02/10 09:59:50;;;;;;;38.97;26.60;;;;;;;;;;6153997;23;20346;-82
2023/02/10 10:02:29;;;;;;;41.75;30.58;;;;;;;;;;6127391;23;20024;-82
2023/02/10 10:04:57;;;;;;;39.05;27.70;;;;;;;;;;6137692;23;20013;-83
2023/02/10 10:07:28;;;;;;;41.22;29.77;;;;;;;;;;6153124;23;20021;-83
2023/02/10 10:10:05;;;;;;;44.42;30.42;;;;;;;;;;6163026;23;20074;-83
2023/02/10 10:12:32;;;;;;;41.28;30.50;;;;;;;;;;6135530;23;20021;-83
2023/02/10 10:14:59;;;;;;;38.08;27.88;;;;;;;;;;6152764;23;20017;-83
2023/02/10 10:17:37;;;;;;;44.30;33.83;;;;;;;;;;6127217;23;20014;-83
2023/02/10 10:20:22;;;;;;;42.13;28.30;;;;;;;;;;6163131;23;20018;-83
2023/02/10 10:22:53;;;;;;;40.92;28.65;;;;;;;;;;6162501;23;20014;-82
2023/02/10 10:25:56;;;;;;;45.85;29.73;;;;;;;;;;6101663;23;20033;-83
2023/02/10 10:28:32;;;;;;;36.95;28.23;;;;;;;;;;6124362;23;20018;-83
2023/02/10 10:31:04;;;;;;;42.35;30.15;;;;;;;;;;6138036;23;20021;-83
2023/02/10 10:33:36;;;;;;;42.03;29.83;;;;;;;;;;6103589;23;20014;-83
2023/02/10 10:36:05;;;;;;;44.47;31.17;;;;;;;;;;6134039;23;20014;-82
2023/02/10 10:38:35;;;;;;;42.00;29.73;;;;;;;;;;6127533;23;20021;-83
2023/02/10 10:41:07;;;;;;;39.45;32.30;;;;;;;;;;6154238;23;20484;-84
2023/02/10 10:43:43;;;;;;;42.58;28.85;;;;;;;;;;6152237;23;20025;-81
2023/02/10 10:46:13;;;;;;;41.85;30.00;;;;;;;;;;6159035;23;20040;-83
2023/02/10 10:48:42;;;;;;;39.17;28.17;;;;;;;;;;6164051;23;20014;-83
2023/02/10 10:51:11;;;;;;;43.47;28.92;;;;;;;;;;6128332;23;20017;-82
2023/02/10 10:53:43;;;;;;;45.78;29.55;;;;;;;;;;6127203;23;20025;-83
2023/02/10 10:56:18;;;;;;;42.90;32.42;;;;;;;;;;6153690;23;20013;-82
2023/02/10 10:58:46;;;;;;;57.80;29.58;;;;;;;;;;6163625;23;20014;-81
2023/02/10 11:01:17;;;;;;;37.47;29.02;;;;;;;;;;6153691;23;20021;-83
2023/02/10 11:03:46;;;;;;;34.90;27.52;;;;;;;;;;6137126;23;20014;-83
2023/02/10 11:06:17;;;;;;;43.45;31.45;;;;;;;;;;6127300;23;20014;-82
2023/02/10 11:08:46;;;;;;;40.25;26.23;;;;;;;;;;6163517;23;20013;-83
2023/02/10 11:11:20;;;;;;;46.50;30.48;;;;;;;;;;6128167;23;20524;-82
2023/02/10 11:13:51;;;;;;;45.88;29.75;;;;;;;;;;6127735;23;20019;-83
2023/02/10 11:16:21;;;;;;;;;;;;;;;;;;6128616;23;20040;-80
2023/02/10 11:18:53;;;;;;;41.25;29.73;;;;;;;;;;6126009;23;19932;-82
2023/02/10 11:21:34;;;;;;;44.75;27.80;;;;;;;;;;6136311;23;20017;-84
2023/02/10 11:24:04;;;;;;;42.63;28.95;;;;;;;;;;6161713;23;20028;-82
2023/02/10 11:26:33;;;;;;;38.42;28.50;;;;;;;;;;6126795;23;20470;-83
2023/02/10 11:29:11;;;;;;;43.85;30.08;;;;;;;;;;6137326;23;20013;-82
2023/02/10 11:31:41;;;;;;;38.47;27.63;;;;;;;;;;6100132;23;20515;-83
2023/02/10 11:34:18;;;;;;;47.17;28.35;;;;;;;;;;6125904;23;20496;-82
2023/02/10 11:36:45;;;;;;;38.45;25.98;;;;;;;;;;6103209;23;20024;-82
2023/02/10 11:39:21;;;;;;;43.47;28.50;;;;;;;;;;6102704;23;20014;-82
2023/02/10 11:41:53;;;;;;;38.58;28.02;;;;;;;;;;6125372;23;20214;-82
2023/02/10 11:44:29;;;;;;;32.53;24.35;;;;;;;;;;6163515;23;20013;-82
2023/02/10 11:46:58;;;;;;;36.67;27.17;;;;;;;;;;6126435;23;20017;-83
2023/02/10 11:49:30;;;;;;;42.80;28.13;;;;;;;;;;6102384;23;20017;-82
2023/02/10 11:51:59;;;;;;;37.92;26.35;;;;;;;;;;6135203;23;20013;-83
2023/02/10 11:54:26;;;;;;;38.42;30.98;;;;;;;;;;6154911;23;20024;-82
2023/02/10 11:59:56;;;;;;;31.92;25.45;;;;;;;;;;6163561;23;20449;-83
2023/02/10 12:02:31;;;;;;;42.28;28.40;;;;;;;;;;6159536;23;20017;-82
2023/02/10 12:05:07;;;;;;;40.47;27.02;;;;;;;;;;6128130;23;20021;-82
2023/02/10 12:07:44;;;;;;;32.45;23.10;;;;;;;;;;6126856;23;20020;-82
2023/02/10 12:10:20;;;;;;;36.63;23.27;;;;;;;;;;6102522;23;20028;-82
2023/02/10 12:12:56;;;;;;;34.92;25.50;;;;;;;;;;6101233;23;20048;-82
2023/02/10 12:15:30;;;;;;;36.25;26.50;;;;;;;;;;6160250;23;20021;-82
2023/02/10 12:18:07;;;;;;;37.42;27.25;;;;;;;;;;6162655;23;20017;-82
2023/02/10 12:20:44;;;;;;;33.10;23.10;;;;;;;;;;6127066;23;20028;-82
2023/02/10 12:23:52;;;;;;;36.38;24.92;;;;;;;;;;6162858;23;20033;-82
2023/02/10 12:26:25;;;;;;;39.00;24.48;;;;;;;;;;6133340;23;20446;-82
2023/02/10 12:29:03;;;;;;;36.53;26.25;;;;;;;;;;6136753;23;20353;-82
2023/02/10 12:31:39;;;;;;;40.08;26.95;;;;;;;;;;6164124;23;20018;-81
2023/02/10 12:34:16;;;;;;;33.63;24.02;;;;;;;;;;6125788;23;20017;-81
2023/02/10 12:36:49;;;;;;;31.85;22.42;;;;;;;;;;6101761;23;20018;-81
2023/02/10 12:39:22;;;;;;;35.50;25.00;;;;;;;;;;6162542;23;20037;-82
2023/02/10 12:42:00;;;;;;;37.08;25.50;;;;;;;;;;6126712;23;20032;-82
2023/02/10 12:44:43;;;;;;;36.15;25.40;;;;;;;;;;6165839;23;20018;-82
2023/02/10 12:47:22;;;;;;;35.03;24.67;;;;;;;;;;6169329;23;20013;-79
2023/02/10 12:50:19;;;;;;;35.15;27.25;;;;;;;;;;6133206;23;20456;-79
2023/02/10 12:52:50;;;;;;;40.53;26.70;;;;;;;;;;6181395;23;20019;-79
2023/02/10 12:55:20;;;;;;;31.55;23.50;;;;;;;;;;6131393;23;20028;-79
2023/02/10 12:57:52;;;;;;;35.63;25.35;;;;;;;;;;6132577;23;20043;-79
2023/02/10 13:00:26;;;;;;;40.50;25.67;;;;;;;;;;6168915;23;20017;-79
2023/02/10 13:02:58;;;;;;;35.85;23.65;;;;;;;;;;6193066;23;20013;-79
2023/02/10 13:05:31;;;;;;;34.80;24.55;;;;;;;;;;6132895;23;20021;-79
2023/02/10 13:08:01;;;;;;;33.70;22.92;;;;;;;;;;6182342;23;20017;-80
2023/02/10 13:10:33;;;;;;;34.88;24.90;;;;;;;;;;6156400;23;20029;-80
2023/02/10 13:13:06;;;;;;;38.95;27.25;;;;;;;;;;6167038;23;20028;-79
2023/02/10 13:15:38;;;;;;;30.80;24.05;;;;;;;;;;6185257;23;20009;-82
2023/02/10 13:18:18;;;;;;;38.78;26.42;;;;;;;;;;6192570;23;20020;-79
2023/02/10 13:20:53;;;;;;;33.42;25.15;;;;;;;;;;6132423;23;20024;-79
2023/02/10 13:23:25;;;;;;;34.65;24.73;;;;;;;;;;6157612;23;20105;-79
2023/02/10 13:26:07;;;;;;;35.00;23.13;;;;;;;;;;6157285;23;20476;-79
2023/02/10 13:28:41;;;;;;;32.95;24.42;;;;;;;;;;6132821;23;20488;-79
2023/02/10 13:31:20;;;;;;;34.67;23.98;;;;;;;;;;6193783;23;20020;-79
2023/02/10 13:33:53;;;;;;;29.25;22.10;;;;;;;;;;6192163;23;20012;-80
2023/02/10 13:36:25;;;;;;;28.40;21.42;;;;;;;;;;6165435;23;20013;-79
2023/02/10 13:38:59;;;;;;;32.55;23.88;;;;;;;;;;6156962;23;20017;-80
2023/02/10 13:41:45;;;;;;;27.85;22.10;;;;;;;;;;6154632;23;20021;-79
2023/02/10 13:44:24;;;;;;;37.30;23.65;;;;;;;;;;6183340;23;20020;-79
2023/02/10 13:46:59;;;;;;;24.25;18.38;;;;;;;;;;6156248;23;20024;-80
2023/02/10 13:49:28;;;;;;;29.75;22.48;;;;;;;;;;6157090;23;20020;-80
2023/02/10 13:52:07;;;;;;;34.53;22.58;;;;;;;;;;6190629;23;20480;-80
2023/02/10 13:54:35;;;;;;;34.88;21.58;;;;;;;;;;6132145;23;20578;-80
2023/02/10 13:57:03;;;;;;;31.58;21.70;;;;;;;;;;6157051;23;20013;-80
2023/02/10 13:59:39;;;;;;;34.97;25.05;;;;;;;;;;6158135;23;20024;-80
2023/02/10 14:02:20;;;;;;;29.63;21.48;;;;;;;;;;6131785;23;20025;-80
2023/02/10 14:04:52;;;;;;;34.20;23.67;;;;;;;;;;6166650;23;20468;-80
2023/02/10 14:07:35;;;;;;;29.88;21.65;;;;;;;;;;6183196;23;20095;-80
2023/02/10 14:10:06;;;;;;;28.92;21.67;;;;;;;;;;6132796;23;20017;-80
2023/02/10 14:12:36;;;;;;;28.80;22.73;;;;;;;;;;6130524;23;20017;-80
2023/02/10 14:15:24;;;;;;;33.67;19.45;;;;;;;;;;6167557;23;20017;-80
2023/02/10 14:18:01;;;;;;;28.73;20.35;;;;;;;;;;6156216;23;20095;-80
2023/02/10 14:20:32;;;;;;;29.70;20.38;;;;;;;;;;6193999;23;20025;-80
2023/02/10 14:23:01;;;;;;;27.50;20.83;;;;;;;;;;6192573;23;20017;-80
2023/02/10 14:25:38;;;;;;;29.92;20.42;;;;;;;;;;6158245;23;20008;-80
2023/02/10 14:28:07;;;;;;;32.60;20.23;;;;;;;;;;6131766;23;20036;-80
2023/02/10 14:30:40;;;;;;;31.15;22.80;;;;;;;;;;6157379;23;20453;-80
2023/02/10 14:33:18;;;;;;;26.27;19.88;;;;;;;;;;6155603;23;20028;-81
2023/02/10 14:35:49;;;;;;;32.75;22.42;;;;;;;;;;6132565;23;20017;-80
2023/02/10 14:38:22;;;;;;;32.60;21.42;;;;;;;;;;6165525;23;20024;-80
2023/02/10 14:40:53;;;;;;;28.67;20.83;;;;;;;;;;6156787;23;20013;-80
2023/02/10 14:43:27;;;;;;;29.17;22.42;;;;;;;;;;6130214;23;20021;-80
2023/02/10 14:45:55;;;;;;;31.33;21.40;;;;;;;;;;6190930;23;20013;-80
2023/02/10 14:48:24;;;;;;;28.63;21.63;;;;;;;;;;6193180;23;20341;-80